sensor_id;sensor_type;location;lat;lon;timestamp;P1;durP1;ratioP1;P2;durP2;ratioP2
2538;SDS011;1280;49.760;9.664;2022-08-11T00:01:08;7.97;;;4.07;;
2538;SDS011;1280;49.760;9.664;2022-08-11T00:03:42;10.63;;;3.93;;
2538;SDS011;1280;49.760;9.664;2022-08-11T00:06:13;7.80;;;4.30;;
2538;SDS011;1280;49.760;9.664;2022-08-11T00:08:42;6.10;;;3.77;;
2538;SDS011;1280;49.760;9.664;2022-08-11T00:11:16;7.90;;;4.00;;
2538;SDS011;1280;49.760;9.664;2022-08-11T00:13:45;8.10;;;4.10;;
2538;SDS011;1280;49.760;9.664;2022-08-11T00:16:16;7.03;;;3.80;;
2538;SDS011;1280;49.760;9.664;2022-08-11T00:18:47;8.63;;;4.33;;
2538;SDS011;1280;49.760;9.664;2022-08-11T00:21:18;6.17;;;3.80;;
2538;SDS011;1280;49.760;9.664;2022-08-11T00:24:08;8.47;;;4.37;;
2538;SDS011;1280;49.760;9.664;2022-08-11T00:26:37;9.07;;;3.93;;
2538;SDS011;1280;49.760;9.664;2022-08-11T00:29:07;7.53;;;3.50;;
2538;SDS011;1280;49.760;9.664;2022-08-11T00:31:36;12.67;;;4.97;;
2538;SDS011;1280;49.760;9.664;2022-08-11T00:34:11;6.07;;;4.20;;
2538;SDS011;1280;49.760;9.664;2022-08-11T00:36:41;8.80;;;4.10;;
2538;SDS011;1280;49.760;9.664;2022-08-11T00:39:13;11.50;;;4.20;;
2538;SDS011;1280;49.760;9.664;2022-08-11T00:41:46;6.63;;;4.00;;
2538;SDS011;1280;49.760;9.664;2022-08-11T00:44:31;8.43;;;4.40;;
2538;SDS011;1280;49.760;9.664;2022-08-11T00:47:12;9.20;;;4.27;;
2538;SDS011;1280;49.760;9.664;2022-08-11T00:49:50;7.30;;;4.20;;
2538;SDS011;1280;49.760;9.664;2022-08-11T00:52:28;7.93;;;4.13;;
2538;SDS011;1280;49.760;9.664;2022-08-11T01:01:29;6.20;;;3.67;;
2538;SDS011;1280;49.760;9.664;2022-08-11T01:04:22;9.07;;;3.80;;
2538;SDS011;1280;49.760;9.664;2022-08-11T01:13:47;7.17;;;3.73;;
2538;SDS011;1280;49.760;9.664;2022-08-11T01:25:55;6.03;;;4.10;;
2538;SDS011;1280;49.760;9.664;2022-08-11T01:32:00;7.60;;;4.43;;
2538;SDS011;1280;49.760;9.664;2022-08-11T01:41:10;7.17;;;4.10;;
2538;SDS011;1280;49.760;9.664;2022-08-11T01:43:59;10.03;;;4.17;;
2538;SDS011;1280;49.760;9.664;2022-08-11T01:47:01;10.07;;;4.30;;
2538;SDS011;1280;49.760;9.664;2022-08-11T01:50:02;7.77;;;4.33;;
2538;SDS011;1280;49.760;9.664;2022-08-11T01:52:40;6.60;;;4.20;;
2538;SDS011;1280;49.760;9.664;2022-08-11T01:55:24;10.03;;;4.40;;
2538;SDS011;1280;49.760;9.664;2022-08-11T01:58:04;7.10;;;4.50;;
2538;SDS011;1280;49.760;9.664;2022-08-11T02:00:40;6.30;;;3.80;;
2538;SDS011;1280;49.760;9.664;2022-08-11T02:03:19;8.77;;;4.77;;
2538;SDS011;1280;49.760;9.664;2022-08-11T02:05:56;10.17;;;4.13;;
2538;SDS011;1280;49.760;9.664;2022-08-11T02:08:34;5.87;;;4.00;;
2538;SDS011;1280;49.760;9.664;2022-08-11T02:11:21;11.53;;;5.40;;
2538;SDS011;1280;49.760;9.664;2022-08-11T02:14:16;5.77;;;3.73;;
2538;SDS011;1280;49.760;9.664;2022-08-11T02:16:58;7.53;;;3.87;;
2538;SDS011;1280;49.760;9.664;2022-08-11T02:19:40;6.73;;;3.50;;
2538;SDS011;1280;49.760;9.664;2022-08-11T02:22:35;10.47;;;4.93;;
2538;SDS011;1280;49.760;9.664;2022-08-11T02:25:33;9.80;;;4.80;;
2538;SDS011;1280;49.760;9.664;2022-08-11T02:28:06;6.60;;;4.07;;
2538;SDS011;1280;49.760;9.664;2022-08-11T02:30:45;9.13;;;4.50;;
2538;SDS011;1280;49.760;9.664;2022-08-11T02:34:04;6.37;;;4.20;;
2538;SDS011;1280;49.760;9.664;2022-08-11T02:36:41;7.90;;;4.40;;
2538;SDS011;1280;49.760;9.664;2022-08-11T02:39:22;7.10;;;4.37;;
2538;SDS011;1280;49.760;9.664;2022-08-11T02:42:04;8.00;;;4.30;;
2538;SDS011;1280;49.760;9.664;2022-08-11T02:45:11;9.13;;;4.60;;
2538;SDS011;1280;49.760;9.664;2022-08-11T02:47:47;6.37;;;4.07;;
2538;SDS011;1280;49.760;9.664;2022-08-11T02:50:57;7.40;;;4.43;;
2538;SDS011;1280;49.760;9.664;2022-08-11T02:53:36;9.83;;;4.87;;
2538;SDS011;1280;49.760;9.664;2022-08-11T02:56:31;10.20;;;4.77;;
2538;SDS011;1280;49.760;9.664;2022-08-11T02:59:16;14.73;;;4.80;;
2538;SDS011;1280;49.760;9.664;2022-08-11T03:02:14;7.90;;;5.03;;
2538;SDS011;1280;49.760;9.664;2022-08-11T03:04:54;11.27;;;4.43;;
2538;SDS011;1280;49.760;9.664;2022-08-11T03:07:29;7.50;;;4.30;;
2538;SDS011;1280;49.760;9.664;2022-08-11T03:10:02;11.57;;;5.17;;
2538;SDS011;1280;49.760;9.664;2022-08-11T03:12:39;7.53;;;4.50;;
2538;SDS011;1280;49.760;9.664;2022-08-11T03:15:32;7.57;;;4.50;;
2538;SDS011;1280;49.760;9.664;2022-08-11T03:18:31;6.37;;;4.03;;
2538;SDS011;1280;49.760;9.664;2022-08-11T03:21:05;8.13;;;4.80;;
2538;SDS011;1280;49.760;9.664;2022-08-11T03:23:38;10.07;;;4.47;;
2538;SDS011;1280;49.760;9.664;2022-08-11T03:26:14;10.73;;;5.27;;
2538;SDS011;1280;49.760;9.664;2022-08-11T03:28:53;8.83;;;4.57;;
2538;SDS011;1280;49.760;9.664;2022-08-11T03:31:33;7.60;;;4.30;;
2538;SDS011;1280;49.760;9.664;2022-08-11T03:34:12;8.17;;;4.93;;
2538;SDS011;1280;49.760;9.664;2022-08-11T03:40:03;6.87;;;4.50;;
2538;SDS011;1280;49.760;9.664;2022-08-11T03:42:41;11.90;;;4.60;;
2538;SDS011;1280;49.760;9.664;2022-08-11T03:45:20;9.03;;;4.93;;
2538;SDS011;1280;49.760;9.664;2022-08-11T03:47:58;8.50;;;5.50;;
2538;SDS011;1280;49.760;9.664;2022-08-11T03:50:45;13.63;;;4.80;;
2538;SDS011;1280;49.760;9.664;2022-08-11T03:53:27;7.00;;;4.23;;
2538;SDS011;1280;49.760;9.664;2022-08-11T04:02:31;18.63;;;4.73;;
2538;SDS011;1280;49.760;9.664;2022-08-11T04:11:50;7.00;;;4.80;;
2538;SDS011;1280;49.760;9.664;2022-08-11T04:18:28;8.00;;;4.90;;
2538;SDS011;1280;49.760;9.664;2022-08-11T04:21:25;9.23;;;4.50;;
2538;SDS011;1280;49.760;9.664;2022-08-11T04:27:23;10.43;;;4.83;;
2538;SDS011;1280;49.760;9.664;2022-08-11T04:30:05;10.43;;;4.67;;
2538;SDS011;1280;49.760;9.664;2022-08-11T04:32:43;8.13;;;4.83;;
2538;SDS011;1280;49.760;9.664;2022-08-11T04:35:31;5.63;;;4.27;;
2538;SDS011;1280;49.760;9.664;2022-08-11T04:38:37;8.87;;;4.70;;
2538;SDS011;1280;49.760;9.664;2022-08-11T04:41:28;7.63;;;4.80;;
2538;SDS011;1280;49.760;9.664;2022-08-11T04:48:05;7.67;;;4.70;;
2538;SDS011;1280;49.760;9.664;2022-08-11T04:51:14;10.20;;;4.43;;
2538;SDS011;1280;49.760;9.664;2022-08-11T04:54:19;8.83;;;4.90;;
2538;SDS011;1280;49.760;9.664;2022-08-11T04:57:16;8.97;;;5.97;;
2538;SDS011;1280;49.760;9.664;2022-08-11T05:00:07;8.10;;;5.20;;
2538;SDS011;1280;49.760;9.664;2022-08-11T05:09:12;8.47;;;4.93;;
2538;SDS011;1280;49.760;9.664;2022-08-11T05:12:01;8.87;;;4.97;;
2538;SDS011;1280;49.760;9.664;2022-08-11T05:14:40;27.13;;;16.37;;
2538;SDS011;1280;49.760;9.664;2022-08-11T05:17:34;9.40;;;5.90;;
2538;SDS011;1280;49.760;9.664;2022-08-11T05:20:23;10.50;;;4.47;;
2538;SDS011;1280;49.760;9.664;2022-08-11T05:23:10;16.60;;;6.43;;
2538;SDS011;1280;49.760;9.664;2022-08-11T05:25:59;7.50;;;4.03;;
2538;SDS011;1280;49.760;9.664;2022-08-11T05:32:09;12.67;;;5.87;;
2538;SDS011;1280;49.760;9.664;2022-08-11T05:35:01;7.80;;;4.67;;
2538;SDS011;1280;49.760;9.664;2022-08-11T05:37:33;9.37;;;4.77;;
2538;SDS011;1280;49.760;9.664;2022-08-11T05:40:08;11.57;;;5.17;;
2538;SDS011;1280;49.760;9.664;2022-08-11T05:42:58;6.77;;;4.30;;
2538;SDS011;1280;49.760;9.664;2022-08-11T05:45:54;13.23;;;4.90;;
2538;SDS011;1280;49.760;9.664;2022-08-11T05:48:40;11.43;;;4.63;;
2538;SDS011;1280;49.760;9.664;2022-08-11T05:51:32;8.60;;;4.10;;
2538;SDS011;1280;49.760;9.664;2022-08-11T05:54:22;8.40;;;3.97;;
2538;SDS011;1280;49.760;9.664;2022-08-11T05:57:17;8.37;;;3.93;;
2538;SDS011;1280;49.760;9.664;2022-08-11T06:00:09;7.87;;;4.30;;
2538;SDS011;1280;49.760;9.664;2022-08-11T06:02:39;7.80;;;3.80;;
2538;SDS011;1280;49.760;9.664;2022-08-11T06:05:09;6.97;;;4.47;;
2538;SDS011;1280;49.760;9.664;2022-08-11T06:07:39;7.60;;;3.93;;
2538;SDS011;1280;49.760;9.664;2022-08-11T06:10:23;6.80;;;3.90;;
2538;SDS011;1280;49.760;9.664;2022-08-11T06:12:53;11.13;;;4.27;;
2538;SDS011;1280;49.760;9.664;2022-08-11T06:15:25;8.73;;;4.37;;
2538;SDS011;1280;49.760;9.664;2022-08-11T06:17:53;5.90;;;3.60;;
2538;SDS011;1280;49.760;9.664;2022-08-11T06:20:22;7.63;;;4.27;;
2538;SDS011;1280;49.760;9.664;2022-08-11T06:22:54;11.87;;;4.10;;
2538;SDS011;1280;49.760;9.664;2022-08-11T06:25:29;7.77;;;4.90;;
2538;SDS011;1280;49.760;9.664;2022-08-11T06:27:58;8.70;;;4.40;;
2538;SDS011;1280;49.760;9.664;2022-08-11T06:30:33;6.97;;;4.33;;
2538;SDS011;1280;49.760;9.664;2022-08-11T06:33:07;9.30;;;4.87;;
2538;SDS011;1280;49.760;9.664;2022-08-11T06:35:47;8.50;;;4.47;;
2538;SDS011;1280;49.760;9.664;2022-08-11T06:38:27;7.73;;;4.37;;
2538;SDS011;1280;49.760;9.664;2022-08-11T06:41:16;7.10;;;4.40;;
2538;SDS011;1280;49.760;9.664;2022-08-11T06:44:08;8.50;;;4.70;;
2538;SDS011;1280;49.760;9.664;2022-08-11T06:46:44;8.27;;;4.40;;
2538;SDS011;1280;49.760;9.664;2022-08-11T06:49:16;10.67;;;5.13;;
2538;SDS011;1280;49.760;9.664;2022-08-11T06:52:03;11.97;;;4.57;;
2538;SDS011;1280;49.760;9.664;2022-08-11T06:54:53;9.23;;;4.93;;
2538;SDS011;1280;49.760;9.664;2022-08-11T06:57:32;6.23;;;3.57;;
2538;SDS011;1280;49.760;9.664;2022-08-11T07:00:19;10.30;;;4.80;;
2538;SDS011;1280;49.760;9.664;2022-08-11T07:03:00;8.20;;;4.33;;
2538;SDS011;1280;49.760;9.664;2022-08-11T07:05:39;8.00;;;3.60;;
2538;SDS011;1280;49.760;9.664;2022-08-11T07:11:34;7.60;;;4.27;;
2538;SDS011;1280;49.760;9.664;2022-08-11T07:14:35;8.43;;;3.03;;
2538;SDS011;1280;49.760;9.664;2022-08-11T07:17:26;6.63;;;3.70;;
2538;SDS011;1280;49.760;9.664;2022-08-11T07:20:00;6.50;;;3.80;;
2538;SDS011;1280;49.760;9.664;2022-08-11T07:22:48;8.60;;;4.03;;
2538;SDS011;1280;49.760;9.664;2022-08-11T07:25:38;6.23;;;3.27;;
2538;SDS011;1280;49.760;9.664;2022-08-11T07:28:28;7.27;;;3.80;;
2538;SDS011;1280;49.760;9.664;2022-08-11T07:31:16;13.97;;;4.03;;
2538;SDS011;1280;49.760;9.664;2022-08-11T07:33:49;6.10;;;3.37;;
2538;SDS011;1280;49.760;9.664;2022-08-11T07:36:38;9.20;;;3.90;;
2538;SDS011;1280;49.760;9.664;2022-08-11T07:39:09;9.57;;;4.83;;
2538;SDS011;1280;49.760;9.664;2022-08-11T07:41:43;6.87;;;4.20;;
2538;SDS011;1280;49.760;9.664;2022-08-11T07:44:14;8.60;;;3.63;;
2538;SDS011;1280;49.760;9.664;2022-08-11T07:46:44;8.47;;;3.53;;
2538;SDS011;1280;49.760;9.664;2022-08-11T07:49:35;6.03;;;3.17;;
2538;SDS011;1280;49.760;9.664;2022-08-11T07:52:24;7.33;;;3.80;;
2538;SDS011;1280;49.760;9.664;2022-08-11T07:54:59;6.33;;;3.40;;
2538;SDS011;1280;49.760;9.664;2022-08-11T07:57:29;6.40;;;3.57;;
2538;SDS011;1280;49.760;9.664;2022-08-11T08:00:37;6.10;;;3.43;;
2538;SDS011;1280;49.760;9.664;2022-08-11T08:03:27;6.87;;;3.87;;
2538;SDS011;1280;49.760;9.664;2022-08-11T08:06:19;7.60;;;3.70;;
2538;SDS011;1280;49.760;9.664;2022-08-11T08:09:07;8.60;;;3.50;;
2538;SDS011;1280;49.760;9.664;2022-08-11T08:11:54;5.83;;;3.70;;
2538;SDS011;1280;49.760;9.664;2022-08-11T08:14:40;9.17;;;3.97;;
2538;SDS011;1280;49.760;9.664;2022-08-11T08:17:26;8.90;;;4.80;;
2538;SDS011;1280;49.760;9.664;2022-08-11T08:20:35;11.70;;;4.00;;
2538;SDS011;1280;49.760;9.664;2022-08-11T08:23:04;6.90;;;3.30;;
2538;SDS011;1280;49.760;9.664;2022-08-11T08:25:36;5.70;;;3.33;;
2538;SDS011;1280;49.760;9.664;2022-08-11T08:28:06;8.37;;;3.93;;
2538;SDS011;1280;49.760;9.664;2022-08-11T08:30:37;14.33;;;3.80;;
2538;SDS011;1280;49.760;9.664;2022-08-11T08:33:14;6.70;;;3.23;;
2538;SDS011;1280;49.760;9.664;2022-08-11T08:35:45;7.70;;;3.40;;
2538;SDS011;1280;49.760;9.664;2022-08-11T08:38:20;7.37;;;3.70;;
2538;SDS011;1280;49.760;9.664;2022-08-11T08:40:50;8.13;;;3.57;;
2538;SDS011;1280;49.760;9.664;2022-08-11T08:43:22;6.73;;;3.37;;
2538;SDS011;1280;49.760;9.664;2022-08-11T08:45:52;8.73;;;3.73;;
2538;SDS011;1280;49.760;9.664;2022-08-11T08:48:22;5.93;;;3.10;;
2538;SDS011;1280;49.760;9.664;2022-08-11T08:50:53;5.77;;;3.20;;
2538;SDS011;1280;49.760;9.664;2022-08-11T08:53:47;7.37;;;3.40;;
2538;SDS011;1280;49.760;9.664;2022-08-11T08:56:23;7.03;;;3.27;;
2538;SDS011;1280;49.760;9.664;2022-08-11T08:58:54;7.23;;;3.60;;
2538;SDS011;1280;49.760;9.664;2022-08-11T09:01:25;8.03;;;3.17;;
2538;SDS011;1280;49.760;9.664;2022-08-11T09:03:57;6.93;;;3.37;;
2538;SDS011;1280;49.760;9.664;2022-08-11T09:06:36;8.00;;;3.50;;
2538;SDS011;1280;49.760;9.664;2022-08-11T09:09:06;6.17;;;3.50;;
2538;SDS011;1280;49.760;9.664;2022-08-11T09:11:36;7.33;;;3.33;;
2538;SDS011;1280;49.760;9.664;2022-08-11T09:14:19;5.83;;;3.30;;
2538;SDS011;1280;49.760;9.664;2022-08-11T09:16:49;11.03;;;3.60;;
2538;SDS011;1280;49.760;9.664;2022-08-11T09:19:18;8.80;;;3.90;;
2538;SDS011;1280;49.760;9.664;2022-08-11T09:21:48;9.40;;;4.30;;
2538;SDS011;1280;49.760;9.664;2022-08-11T09:24:38;10.67;;;3.77;;
2538;SDS011;1280;49.760;9.664;2022-08-11T09:27:26;6.90;;;3.57;;
2538;SDS011;1280;49.760;9.664;2022-08-11T09:29:55;8.27;;;3.70;;
2538;SDS011;1280;49.760;9.664;2022-08-11T09:32:23;8.70;;;4.03;;
2538;SDS011;1280;49.760;9.664;2022-08-11T09:34:54;7.73;;;4.10;;
2538;SDS011;1280;49.760;9.664;2022-08-11T09:37:23;7.10;;;4.47;;
2538;SDS011;1280;49.760;9.664;2022-08-11T09:40:20;7.37;;;4.00;;
2538;SDS011;1280;49.760;9.664;2022-08-11T09:43:00;6.13;;;3.63;;
2538;SDS011;1280;49.760;9.664;2022-08-11T09:45:50;8.33;;;4.60;;
2538;SDS011;1280;49.760;9.664;2022-08-11T09:48:19;5.93;;;3.67;;
2538;SDS011;1280;49.760;9.664;2022-08-11T09:50:52;5.67;;;3.43;;
2538;SDS011;1280;49.760;9.664;2022-08-11T09:53:23;6.30;;;3.87;;
2538;SDS011;1280;49.760;9.664;2022-08-11T09:56:03;7.83;;;3.80;;
2538;SDS011;1280;49.760;9.664;2022-08-11T09:58:48;6.17;;;3.60;;
2538;SDS011;1280;49.760;9.664;2022-08-11T10:01:19;6.93;;;3.37;;
2538;SDS011;1280;49.760;9.664;2022-08-11T10:03:57;8.70;;;3.90;;
2538;SDS011;1280;49.760;9.664;2022-08-11T10:06:27;7.43;;;3.77;;
2538;SDS011;1280;49.760;9.664;2022-08-11T10:09:20;6.10;;;3.50;;
2538;SDS011;1280;49.760;9.664;2022-08-11T10:11:51;6.30;;;3.27;;
2538;SDS011;1280;49.760;9.664;2022-08-11T10:14:25;5.37;;;2.87;;
2538;SDS011;1280;49.760;9.664;2022-08-11T10:17:14;5.60;;;3.67;;
2538;SDS011;1280;49.760;9.664;2022-08-11T10:19:44;10.13;;;3.63;;
2538;SDS011;1280;49.760;9.664;2022-08-11T10:22:31;6.20;;;3.90;;
2538;SDS011;1280;49.760;9.664;2022-08-11T10:25:18;6.27;;;2.97;;
2538;SDS011;1280;49.760;9.664;2022-08-11T10:28:06;7.97;;;3.83;;
2538;SDS011;1280;49.760;9.664;2022-08-11T10:30:57;5.70;;;3.23;;
2538;SDS011;1280;49.760;9.664;2022-08-11T10:33:43;5.50;;;3.23;;
2538;SDS011;1280;49.760;9.664;2022-08-11T10:36:30;5.30;;;3.30;;
2538;SDS011;1280;49.760;9.664;2022-08-11T10:39:01;8.87;;;3.53;;
2538;SDS011;1280;49.760;9.664;2022-08-11T10:41:31;9.57;;;3.10;;
2538;SDS011;1280;49.760;9.664;2022-08-11T10:44:36;11.60;;;3.43;;
2538;SDS011;1280;49.760;9.664;2022-08-11T10:47:09;5.67;;;3.40;;
2538;SDS011;1280;49.760;9.664;2022-08-11T10:49:56;6.13;;;3.70;;
2538;SDS011;1280;49.760;9.664;2022-08-11T10:52:48;7.23;;;3.33;;
2538;SDS011;1280;49.760;9.664;2022-08-11T10:55:35;5.70;;;3.00;;
2538;SDS011;1280;49.760;9.664;2022-08-11T10:58:24;7.33;;;3.03;;
2538;SDS011;1280;49.760;9.664;2022-08-11T11:01:10;6.37;;;3.90;;
2538;SDS011;1280;49.760;9.664;2022-08-11T11:03:40;7.23;;;3.27;;
2538;SDS011;1280;49.760;9.664;2022-08-11T11:06:15;6.77;;;3.77;;
2538;SDS011;1280;49.760;9.664;2022-08-11T11:08:56;9.53;;;3.30;;
2538;SDS011;1280;49.760;9.664;2022-08-11T11:11:32;6.10;;;3.43;;
2538;SDS011;1280;49.760;9.664;2022-08-11T11:14:20;6.33;;;3.30;;
2538;SDS011;1280;49.760;9.664;2022-08-11T11:17:15;9.80;;;3.00;;
2538;SDS011;1280;49.760;9.664;2022-08-11T11:20:11;5.10;;;3.00;;
2538;SDS011;1280;49.760;9.664;2022-08-11T11:23:03;5.50;;;3.10;;
2538;SDS011;1280;49.760;9.664;2022-08-11T11:29:00;7.27;;;3.03;;
2538;SDS011;1280;49.760;9.664;2022-08-11T11:31:49;6.20;;;3.13;;
2538;SDS011;1280;49.760;9.664;2022-08-11T11:34:37;5.50;;;3.20;;
2538;SDS011;1280;49.760;9.664;2022-08-11T11:37:20;5.40;;;2.67;;
2538;SDS011;1280;49.760;9.664;2022-08-11T11:39:50;6.87;;;2.93;;
2538;SDS011;1280;49.760;9.664;2022-08-11T11:42:19;6.03;;;3.07;;
2538;SDS011;1280;49.760;9.664;2022-08-11T11:44:49;6.20;;;3.07;;
2538;SDS011;1280;49.760;9.664;2022-08-11T11:47:21;5.40;;;2.93;;
2538;SDS011;1280;49.760;9.664;2022-08-11T11:49:50;5.93;;;2.87;;
2538;SDS011;1280;49.760;9.664;2022-08-11T11:52:21;6.10;;;2.90;;
2538;SDS011;1280;49.760;9.664;2022-08-11T11:54:50;9.97;;;3.17;;
2538;SDS011;1280;49.760;9.664;2022-08-11T11:57:21;5.80;;;2.80;;
2538;SDS011;1280;49.760;9.664;2022-08-11T12:00:24;4.77;;;2.47;;
2538;SDS011;1280;49.760;9.664;2022-08-11T12:03:10;6.60;;;2.60;;
2538;SDS011;1280;49.760;9.664;2022-08-11T12:05:39;5.47;;;2.50;;
2538;SDS011;1280;49.760;9.664;2022-08-11T12:08:11;6.40;;;2.77;;
2538;SDS011;1280;49.760;9.664;2022-08-11T12:10:42;11.20;;;2.30;;
2538;SDS011;1280;49.760;9.664;2022-08-11T12:13:12;4.83;;;2.27;;
2538;SDS011;1280;49.760;9.664;2022-08-11T12:15:58;5.13;;;2.30;;
2538;SDS011;1280;49.760;9.664;2022-08-11T12:18:49;6.23;;;2.63;;
2538;SDS011;1280;49.760;9.664;2022-08-11T12:21:19;5.47;;;2.80;;
2538;SDS011;1280;49.760;9.664;2022-08-11T12:23:50;9.53;;;2.73;;
2538;SDS011;1280;49.760;9.664;2022-08-11T12:26:36;7.83;;;2.70;;
2538;SDS011;1280;49.760;9.664;2022-08-11T12:29:39;4.67;;;2.33;;
2538;SDS011;1280;49.760;9.664;2022-08-11T12:32:09;5.70;;;2.53;;
2538;SDS011;1280;49.760;9.664;2022-08-11T12:34:38;5.57;;;2.67;;
2538;SDS011;1280;49.760;9.664;2022-08-11T12:37:06;5.23;;;2.33;;
2538;SDS011;1280;49.760;9.664;2022-08-11T12:39:43;5.50;;;2.47;;
2538;SDS011;1280;49.760;9.664;2022-08-11T12:42:52;5.03;;;2.60;;
2538;SDS011;1280;49.760;9.664;2022-08-11T12:46:05;6.30;;;2.57;;
2538;SDS011;1280;49.760;9.664;2022-08-11T12:48:35;5.20;;;2.60;;
2538;SDS011;1280;49.760;9.664;2022-08-11T12:51:29;7.80;;;3.00;;
2538;SDS011;1280;49.760;9.664;2022-08-11T12:54:39;5.90;;;2.80;;
2538;SDS011;1280;49.760;9.664;2022-08-11T12:57:17;8.07;;;3.00;;
2538;SDS011;1280;49.760;9.664;2022-08-11T13:00:08;5.53;;;2.90;;
2538;SDS011;1280;49.760;9.664;2022-08-11T13:02:54;5.33;;;3.00;;
2538;SDS011;1280;49.760;9.664;2022-08-11T13:05:41;5.60;;;3.10;;
2538;SDS011;1280;49.760;9.664;2022-08-11T13:08:10;5.20;;;2.80;;
2538;SDS011;1280;49.760;9.664;2022-08-11T13:10:42;8.03;;;2.93;;
2538;SDS011;1280;49.760;9.664;2022-08-11T13:13:28;15.03;;;3.57;;
2538;SDS011;1280;49.760;9.664;2022-08-11T13:16:17;5.77;;;3.03;;
2538;SDS011;1280;49.760;9.664;2022-08-11T13:18:46;4.50;;;2.30;;
2538;SDS011;1280;49.760;9.664;2022-08-11T13:21:15;7.33;;;2.60;;
2538;SDS011;1280;49.760;9.664;2022-08-11T13:23:46;9.30;;;3.00;;
2538;SDS011;1280;49.760;9.664;2022-08-11T13:26:28;5.27;;;2.53;;
2538;SDS011;1280;49.760;9.664;2022-08-11T13:29:12;6.43;;;2.90;;
2538;SDS011;1280;49.760;9.664;2022-08-11T13:31:42;6.10;;;2.60;;
2538;SDS011;1280;49.760;9.664;2022-08-11T13:34:11;7.33;;;2.80;;
2538;SDS011;1280;49.760;9.664;2022-08-11T13:36:41;4.90;;;2.30;;
2538;SDS011;1280;49.760;9.664;2022-08-11T13:39:10;5.70;;;2.60;;
2538;SDS011;1280;49.760;9.664;2022-08-11T13:41:41;11.30;;;3.40;;
2538;SDS011;1280;49.760;9.664;2022-08-11T13:44:12;4.87;;;2.80;;
2538;SDS011;1280;49.760;9.664;2022-08-11T13:46:50;5.00;;;2.20;;
2538;SDS011;1280;49.760;9.664;2022-08-11T13:49:19;6.67;;;2.60;;
2538;SDS011;1280;49.760;9.664;2022-08-11T13:51:49;8.93;;;2.80;;
2538;SDS011;1280;49.760;9.664;2022-08-11T13:54:18;8.07;;;2.80;;
2538;SDS011;1280;49.760;9.664;2022-08-11T13:56:51;5.00;;;2.50;;
2538;SDS011;1280;49.760;9.664;2022-08-11T13:59:22;8.00;;;2.90;;
2538;SDS011;1280;49.760;9.664;2022-08-11T14:01:57;8.83;;;2.70;;
2538;SDS011;1280;49.760;9.664;2022-08-11T14:04:49;7.13;;;2.60;;
2538;SDS011;1280;49.760;9.664;2022-08-11T14:07:21;7.43;;;3.30;;
2538;SDS011;1280;49.760;9.664;2022-08-11T14:09:52;4.60;;;2.10;;
2538;SDS011;1280;49.760;9.664;2022-08-11T14:12:25;6.90;;;3.00;;
2538;SDS011;1280;49.760;9.664;2022-08-11T14:15:13;10.47;;;3.13;;
2538;SDS011;1280;49.760;9.664;2022-08-11T14:17:46;5.50;;;2.43;;
2538;SDS011;1280;49.760;9.664;2022-08-11T14:20:18;5.07;;;2.50;;
2538;SDS011;1280;49.760;9.664;2022-08-11T14:23:05;7.47;;;2.73;;
2538;SDS011;1280;49.760;9.664;2022-08-11T14:25:36;5.90;;;2.53;;
2538;SDS011;1280;49.760;9.664;2022-08-11T14:28:30;7.00;;;2.77;;
2538;SDS011;1280;49.760;9.664;2022-08-11T14:31:10;4.83;;;2.60;;
2538;SDS011;1280;49.760;9.664;2022-08-11T14:33:41;4.93;;;2.00;;
2538;SDS011;1280;49.760;9.664;2022-08-11T14:36:31;7.13;;;2.50;;
2538;SDS011;1280;49.760;9.664;2022-08-11T14:39:03;11.13;;;2.70;;
2538;SDS011;1280;49.760;9.664;2022-08-11T14:41:37;4.87;;;2.37;;
2538;SDS011;1280;49.760;9.664;2022-08-11T14:44:41;5.10;;;2.17;;
2538;SDS011;1280;49.760;9.664;2022-08-11T14:47:28;5.17;;;2.50;;
2538;SDS011;1280;49.760;9.664;2022-08-11T14:50:00;6.03;;;2.30;;
2538;SDS011;1280;49.760;9.664;2022-08-11T14:52:37;5.60;;;1.97;;
2538;SDS011;1280;49.760;9.664;2022-08-11T14:55:09;5.30;;;2.40;;
2538;SDS011;1280;49.760;9.664;2022-08-11T14:57:56;8.70;;;2.70;;
2538;SDS011;1280;49.760;9.664;2022-08-11T15:00:28;6.83;;;2.63;;
2538;SDS011;1280;49.760;9.664;2022-08-11T15:02:57;6.10;;;2.17;;
2538;SDS011;1280;49.760;9.664;2022-08-11T15:05:39;7.87;;;2.53;;
2538;SDS011;1280;49.760;9.664;2022-08-11T15:08:24;5.50;;;2.43;;
2538;SDS011;1280;49.760;9.664;2022-08-11T15:11:07;8.70;;;2.20;;
2538;SDS011;1280;49.760;9.664;2022-08-11T15:13:57;5.90;;;2.80;;
2538;SDS011;1280;49.760;9.664;2022-08-11T15:16:28;6.40;;;2.50;;
2538;SDS011;1280;49.760;9.664;2022-08-11T15:19:14;5.73;;;2.07;;
2538;SDS011;1280;49.760;9.664;2022-08-11T15:21:44;6.57;;;2.50;;
2538;SDS011;1280;49.760;9.664;2022-08-11T15:24:30;6.50;;;2.40;;
2538;SDS011;1280;49.760;9.664;2022-08-11T15:27:00;5.10;;;2.10;;
2538;SDS011;1280;49.760;9.664;2022-08-11T15:29:58;5.50;;;2.20;;
2538;SDS011;1280;49.760;9.664;2022-08-11T15:33:02;6.50;;;2.50;;
2538;SDS011;1280;49.760;9.664;2022-08-11T15:35:51;5.20;;;2.50;;
2538;SDS011;1280;49.760;9.664;2022-08-11T15:38:40;6.57;;;2.20;;
2538;SDS011;1280;49.760;9.664;2022-08-11T15:41:12;7.80;;;2.40;;
2538;SDS011;1280;49.760;9.664;2022-08-11T15:44:01;8.30;;;2.70;;
2538;SDS011;1280;49.760;9.664;2022-08-11T15:47:14;7.93;;;2.23;;
2538;SDS011;1280;49.760;9.664;2022-08-11T15:49:46;8.33;;;2.33;;
2538;SDS011;1280;49.760;9.664;2022-08-11T15:52:41;4.73;;;2.50;;
2538;SDS011;1280;49.760;9.664;2022-08-11T15:55:13;5.00;;;1.80;;
2538;SDS011;1280;49.760;9.664;2022-08-11T15:57:43;6.73;;;2.57;;
2538;SDS011;1280;49.760;9.664;2022-08-11T16:00:34;6.80;;;2.43;;
2538;SDS011;1280;49.760;9.664;2022-08-11T16:03:30;6.83;;;2.10;;
2538;SDS011;1280;49.760;9.664;2022-08-11T16:06:36;11.37;;;2.90;;
2538;SDS011;1280;49.760;9.664;2022-08-11T16:09:16;6.20;;;2.40;;
2538;SDS011;1280;49.760;9.664;2022-08-11T16:11:49;5.80;;;2.30;;
2538;SDS011;1280;49.760;9.664;2022-08-11T16:14:19;6.13;;;2.70;;
2538;SDS011;1280;49.760;9.664;2022-08-11T16:17:07;5.07;;;2.60;;
2538;SDS011;1280;49.760;9.664;2022-08-11T16:19:38;8.57;;;2.60;;
2538;SDS011;1280;49.760;9.664;2022-08-11T16:22:10;6.30;;;2.63;;
2538;SDS011;1280;49.760;9.664;2022-08-11T16:24:42;4.53;;;2.30;;
2538;SDS011;1280;49.760;9.664;2022-08-11T16:27:31;4.80;;;2.47;;
2538;SDS011;1280;49.760;9.664;2022-08-11T16:30:05;9.20;;;2.33;;
2538;SDS011;1280;49.760;9.664;2022-08-11T16:32:36;6.00;;;2.33;;
2538;SDS011;1280;49.760;9.664;2022-08-11T16:35:08;5.87;;;2.40;;
2538;SDS011;1280;49.760;9.664;2022-08-11T16:38:03;8.60;;;2.60;;
2538;SDS011;1280;49.760;9.664;2022-08-11T16:40:51;5.40;;;2.57;;
2538;SDS011;1280;49.760;9.664;2022-08-11T16:43:22;9.63;;;2.43;;
2538;SDS011;1280;49.760;9.664;2022-08-11T16:46:11;9.33;;;2.37;;
2538;SDS011;1280;49.760;9.664;2022-08-11T16:48:59;7.53;;;2.53;;
2538;SDS011;1280;49.760;9.664;2022-08-11T16:51:30;9.80;;;2.63;;
2538;SDS011;1280;49.760;9.664;2022-08-11T16:54:00;5.97;;;2.63;;
2538;SDS011;1280;49.760;9.664;2022-08-11T16:56:33;4.97;;;2.90;;
2538;SDS011;1280;49.760;9.664;2022-08-11T16:59:05;5.73;;;2.33;;
2538;SDS011;1280;49.760;9.664;2022-08-11T17:01:44;9.70;;;2.80;;
2538;SDS011;1280;49.760;9.664;2022-08-11T17:04:16;8.70;;;2.50;;
2538;SDS011;1280;49.760;9.664;2022-08-11T17:07:15;8.90;;;2.57;;
2538;SDS011;1280;49.760;9.664;2022-08-11T17:10:10;4.70;;;2.10;;
2538;SDS011;1280;49.760;9.664;2022-08-11T17:13:21;5.60;;;2.53;;
2538;SDS011;1280;49.760;9.664;2022-08-11T17:15:55;5.47;;;2.60;;
2538;SDS011;1280;49.760;9.664;2022-08-11T17:18:35;8.97;;;2.87;;
2538;SDS011;1280;49.760;9.664;2022-08-11T17:21:10;4.97;;;2.60;;
2538;SDS011;1280;49.760;9.664;2022-08-11T17:23:42;5.07;;;2.27;;
2538;SDS011;1280;49.760;9.664;2022-08-11T17:26:15;4.97;;;2.63;;
2538;SDS011;1280;49.760;9.664;2022-08-11T17:28:50;9.20;;;2.87;;
2538;SDS011;1280;49.760;9.664;2022-08-11T17:31:21;6.97;;;2.50;;
2538;SDS011;1280;49.760;9.664;2022-08-11T17:34:08;5.83;;;2.07;;
2538;SDS011;1280;49.760;9.664;2022-08-11T17:36:55;10.73;;;2.80;;
2538;SDS011;1280;49.760;9.664;2022-08-11T17:39:26;6.00;;;2.57;;
2538;SDS011;1280;49.760;9.664;2022-08-11T17:41:57;6.23;;;3.00;;
2538;SDS011;1280;49.760;9.664;2022-08-11T17:44:45;4.67;;;2.37;;
2538;SDS011;1280;49.760;9.664;2022-08-11T17:47:32;10.40;;;3.10;;
2538;SDS011;1280;49.760;9.664;2022-08-11T17:50:19;7.70;;;2.97;;
2538;SDS011;1280;49.760;9.664;2022-08-11T17:52:48;7.67;;;2.60;;